Portada
METAR-TAF:

METAR-TAF

Aeroports :

Qaisumah, Aràbia Saudita

latitud: 28-19N, longitud: 046-07E, altitud: 358 m

Observació

L'informe es va fer fa 43 minuts, a les 06:00 UTC
Vent 12 kt del Oest
Temperatura 33°C
Humitat 24%
Pressió 1010 hPa
Visibilitat 10 km o més
sense núvols per sota de 1500 mi sense presència de cumulonimbus.

METAR: OEPA 270600Z 28012KT CAVOK 33/10 Q1010 NOSIG

Hora: 09:43 (06:43 UTC)

Pronòstic

L'informe es va fer fa 7 hores i 43 minuts, a les 23:00 UTC
Pronòstic vàlid del 27 a les 00 UTC al 28 a les 06 UTC
Vent 3 kt amb direcció variable
Visibilitat: 7000 m
Evolucionant progressivament
l' 27 a les 04 UTC al 27 a les 06 UTC
Vent 17 kt del Oest/Sud-Oest
Temporalment
l' 27 a les 06 UTC al 27 a les 12 UTC
Visibilitat: 4000 m
torb alta de pols
Evolucionant progressivament
l' 27 a les 12 UTC al 27 a les 14 UTC
Vent 10 kt del Nord/Nord-Oest

TAF: OEPA 262300Z 2700/2806 VRB03KT 7000 NSC BECMG 2704/2706 25017KT TEMPO 2706/2712 4000 BLDU BECMG 2712/2714 33010KT

Observacions i pronòstics meteorològics de més de 4000 aeroports (METAR i TAF).

Les estacions disponibles són els punts grocs i vermells al mapa.

Posi el ratolí al punt desitjat per veure el nom de l'estació.

Feu clic per veure les observacions i els pronòstics meteorològics.

Per canviar el mapa: feu clic els botons verds amb una creu de color negre per apropar; al botó verd amb un guió per allunyar la imatge; o en les fletxes verdes per a mapes adjacents.


METAR-TAF: